Latest Weather Observations for Lady Elliot Island

IDQ60801

Issued at 10:52 pm EST Wednesday 25 May 2022 (issued every 10 minutes, with the page automatically refreshed every 10 minutes)

About weather observations | Map of weather stations | Latest weather observations for QLD | Other Formats
Station Details ID: 039059 Name: LADY ELLIOT ISLAND Lat: -24.11 Lon: 152.72 Height: 3.6 m
Data from the previous 72 hours. | See also: Recent months at Lady Elliot Island
Date/Time
EST
Temp
°C
App
Temp
°C
Dew
Point
°C
Rel
Hum
%
Delta-T
°C
Wind Press
QNH
hPa
Press
MSL
hPa
Rain since
9am
mm
Dir  Spd
km/h
Gust
km/h
Spd
kts
Gust
kts
25/10:30pm 21.1 19.4 19.9 93 0.8 SSE 28 41 15 22 1015.7 1015.7 0.2
25/10:00pm 20.9 18.4 19.7 93 0.8 SSE 32 46 17 25 1015.7 1015.7 0.2
25/09:30pm 20.8 18.6 19.6 93 0.8 SSE 30 39 16 21 1016.0 1016.0 0.0
25/09:00pm 20.5 17.2 19.2 92 0.8 SE 35 48 19 26 1016.3 1016.3 0.0
25/08:30pm 21.3 18.4 19.2 88 1.3 SSE 33 44 18 24 1016.2 1016.2 0.0
25/08:00pm 21.2 18.5 19.3 89 1.2 SSE 32 46 17 25 1016.1 1016.1 0.0
25/07:30pm 21.4 18.7 19.3 88 1.3 SSE 32 43 17 23 1015.8 1015.8 0.0
25/07:00pm 21.8 19.9 19.4 86 1.5 SSE 28 37 15 20 1015.8 1015.8 0.0
25/06:30pm 21.9 19.6 19.3 85 1.7 SSE 30 44 16 24 1015.5 1015.5 0.0
25/06:00pm 21.8 19.8 19.2 85 1.6 SSE 28 37 15 20 1015.3 1015.3 0.0
25/05:30pm 22.0 19.6 19.2 84 1.8 SSE 30 39 16 21 1014.8 1014.8 0.0
25/05:00pm 22.1 20.2 19.3 84 1.8 SE 28 37 15 20 1014.8 1014.8 0.0
25/04:30pm 22.2 20.2 19.2 83 1.9 SSE 28 37 15 20 1014.7 1014.7 0.0
25/04:00pm 22.6 21.0 19.2 81 2.2 SE 26 37 14 20 1014.6 1014.6 0.0
25/03:30pm 22.3 20.6 18.9 81 2.1 SSE 26 41 14 22 1014.7 1014.7 0.0
25/03:00pm 23.3 21.1 18.8 76 2.8 SE 28 35 15 19 1014.7 1014.7 0.0
25/02:30pm 23.2 21.0 18.7 76 2.8 SE 28 37 15 20 1014.5 1014.5 0.0
25/02:00pm 23.3 21.2 19.0 77 2.7 SE 28 35 15 19 1014.6 1014.6 0.0
25/01:30pm 23.6 21.6 19.9 80 2.4 SE 30 37 16 20 1014.9 1014.9 0.0
25/01:00pm 23.8 20.9 18.9 74 3.1 SE 32 39 17 21 1015.3 1015.3 0.0
25/12:30pm 23.9 21.2 19.2 75 3.0 ESE 32 39 17 21 1015.4 1015.4 0.0
25/12:00pm 23.4 20.6 19.1 77 2.7 ESE 32 41 17 22 1015.9 1015.9 0.0
25/11:30am 23.2 19.9 18.3 74 3.1 SE 33 41 18 22 1016.5 1016.5 0.0
25/11:00am 23.7 20.8 18.8 74 3.1 SE 32 39 17 21 1017.1 1017.1 0.0
25/10:30am 23.8 21.0 19.5 77 2.8 SE 33 41 18 22 1017.2 1017.2 0.0
25/10:00am 22.9 19.8 18.9 78 2.5 SE 33 43 18 23 1017.4 1017.4 0.0
25/09:30am 23.2 19.4 18.1 73 3.2 SE 35 44 19 24 1017.3 1017.3 0.0
25/09:00am 22.6 20.2 19.9 85 1.7 SE 32 41 17 22 1017.3 1017.3 11.6
25/08:30am 22.1 20.8 19.8 87 1.5 SSE 26 35 14 19 1017.3 1017.3 11.6
25/08:00am 22.1 20.6 19.5 85 1.7 SSE 26 37 14 20 1017.1 1017.1 11.6
25/07:30am 22.0 21.5 19.9 88 1.3 SSE 22 32 12 17 1017.2 1017.2 11.6
25/07:00am 21.4 20.7 19.5 89 1.2 SSE 22 33 12 18 1017.0 1017.0 11.6
25/06:30am 21.0 20.3 19.5 91 1.0 SSE 22 32 12 17 1017.0 1017.0 11.6
25/06:00am 20.5 19.6 19.8 96 0.4 SE 24 32 13 17 1016.8 1016.8 10.8
25/05:53am 19.9 17.0 18.9 94 0.6 SE 32 50 17 27 1016.9 1016.9 10.6
25/05:44am 20.1 17.3 18.1 88 1.2 SSE 30 50 16 27 1016.8 1016.8 8.4
25/05:30am 21.3 20.9 19.4 89 1.2 SSE 20 30 11 16 1016.4 1016.4 7.8
25/05:00am 19.8 16.5 17.0 84 1.7 SSE 30 50 16 27 1016.4 1016.4 4.2
25/04:59am 20.5 17.7 17.3 82 2.0 SSE 28 50 15 27 1016.3 1016.3 3.4
25/04:30am 21.8 19.6 18.6 82 2.0 SSE 28 39 15 21 1016.0 1016.0 3.2
25/04:00am 21.7 19.7 19.1 85 1.6 SSE 28 39 15 21 1016.0 1016.0 3.2
25/03:30am 21.1 19.6 19.4 90 1.1 SSE 26 37 14 20 1016.0 1016.0 3.2
25/03:00am 21.4 20.6 19.3 88 1.3 SSE 22 35 12 19 1016.3 1016.3 3.2
25/02:30am 21.1 19.2 18.5 85 1.6 SE 26 33 14 18 1016.3 1016.3 3.2
25/02:00am 21.6 18.9 19.2 86 1.5 SE 32 39 17 21 1016.5 1016.5 3.2
25/01:30am 21.4 18.4 18.6 84 1.8 SE 32 41 17 22 1016.8 1016.8 3.2
25/01:00am 21.7 18.9 19.1 85 1.6 SE 32 43 17 23 1016.9 1016.9 3.2
25/12:30am 21.8 18.3 18.8 83 1.9 SE 35 43 19 23 1016.7 1016.7 3.2
25/12:00am 21.8 19.0 19.0 84 1.8 SE 32 44 17 24 1017.1 1017.1 3.2
 
Date/Time
EST
Temp
°C
App
Temp
°C
Dew
Point
°C
Rel
Hum
%
Delta-T
°C
Wind Press
QNH
hPa
Press
MSL
hPa
Rain since
9am
mm
Dir  Spd
km/h
Gust
km/h
Spd
kts
Gust
kts
24/11:30pm 21.5 18.2 19.2 87 1.5 SE 35 46 19 25 1017.5 1017.5 3.2
24/11:00pm 21.9 18.9 19.1 84 1.8 SE 33 46 18 25 1017.6 1017.6 3.2
24/10:30pm 21.8 19.2 19.5 87 1.5 SE 32 41 17 22 1018.1 1018.1 3.2
24/10:00pm 21.9 19.3 19.5 86 1.5 SE 32 39 17 21 1018.1 1018.1 3.2
24/09:30pm 22.2 20.0 19.6 85 1.7 SE 30 41 16 22 1018.0 1018.0 3.2
24/09:00pm 22.1 18.7 19.1 83 1.9 SE 35 44 19 24 1017.9 1017.9 3.2
24/08:30pm 21.7 19.7 20.0 90 1.1 SE 30 39 16 21 1017.9 1017.9 3.2
24/08:00pm 20.8 17.1 18.4 86 1.5 ESE 35 43 19 23 1017.8 1017.8 3.2
24/07:30pm 20.6 17.0 19.3 92 0.8 SSE 37 50 20 27 1017.8 1017.8 2.8
24/07:00pm 20.7 19.9 20.0 96 0.4 SE 24 33 13 18 1017.4 1017.4 2.0
24/06:30pm 20.3 16.7 18.6 90 1.1 SE 35 43 19 23 1017.3 1017.3 0.0
24/06:00pm 22.0 18.6 19.0 83 1.9 SE 35 46 19 25 1016.8 1016.8 0.0
24/05:30pm 22.0 17.7 18.6 81 2.1 SE 39 52 21 28 1016.5 1016.5 0.0
24/05:00pm 22.0 18.6 19.0 83 1.9 SE 35 43 19 23 1016.1 1016.1 0.0
24/04:30pm 22.6 19.1 18.8 79 2.4 SE 35 44 19 24 1016.0 1016.0 0.0
24/04:00pm 22.7 19.2 18.7 78 2.5 SE 35 50 19 27 1015.9 1015.9 0.0
24/03:30pm 22.8 19.1 19.2 80 2.3 SE 37 48 20 26 1015.6 1015.6 0.0
24/03:00pm 23.2 20.1 19.6 80 2.3 SE 35 44 19 24 1015.5 1015.5 0.0
24/02:30pm 23.3 20.5 19.5 79 2.4 SE 33 44 18 24 1015.6 1015.6 0.0
24/02:00pm 23.1 20.1 18.6 76 2.8 SE 32 43 17 23 1015.7 1015.7 0.0
24/01:30pm 23.2 20.8 19.2 78 2.5 SE 30 39 16 21 1015.7 1015.7 0.0
24/01:00pm 23.2 20.1 19.6 80 2.3 SE 35 46 19 25 1015.7 1015.7 0.0
24/12:30pm 23.4 19.7 20.0 81 2.2 SE 39 52 21 28 1015.9 1015.9 0.0
24/12:00pm 23.1 19.7 19.9 82 2.1 SE 37 46 20 25 1016.1 1016.1 0.0
24/11:30am 23.4 20.5 19.3 78 2.6 SE 33 44 18 24 1016.9 1016.9 0.0
24/11:00am 23.6 20.7 20.1 81 2.3 SE 35 46 19 25 1017.1 1017.1 0.0
24/10:30am 23.5 19.1 19.2 77 2.7 ESE 41 52 22 28 1017.0 1017.0 0.0
24/10:00am 22.9 19.1 19.7 82 2.0 SE 39 50 21 27 1017.1 1017.1 0.0
24/09:30am 23.7 20.5 19.4 77 2.7 ESE 35 46 19 25 1017.3 1017.3 0.0
24/09:00am 22.9 21.8 19.5 81 2.2 ESE 24 32 13 17 1017.4 1017.4 91.0
24/08:30am 22.7 20.7 19.1 80 2.3 ESE 28 35 15 19 1017.3 1017.3 91.0
24/08:00am 22.4 20.0 19.0 81 2.1 ESE 30 37 16 20 1017.0 1017.0 91.0
24/07:30am 21.7 18.8 17.9 79 2.4 ESE 30 37 16 20 1017.1 1017.1 91.0
24/07:00am 21.2 18.0 18.2 83 1.9 ESE 32 43 17 23 1016.9 1016.9 91.0
24/06:30am 21.4 16.3 17.8 80 2.2 ESE 41 52 22 28 1016.2 1016.2 91.0
24/06:00am 21.8 16.6 18.8 83 1.9 ESE 44 52 24 28 1015.7 1015.7 91.0
24/05:30am 21.9 18.0 17.9 78 2.5 ESE 35 43 19 23 1015.8 1015.8 91.0
24/05:00am 21.9 16.7 17.5 76 2.7 ESE 41 50 22 27 1015.1 1015.1 91.0
24/04:30am 21.4 16.9 17.4 78 2.5 ESE 37 43 20 23 1015.4 1015.4 91.0
24/04:00am 20.7 16.7 18.5 87 1.4 ESE 37 46 20 25 1015.6 1015.6 91.0
24/03:30am 21.0 17.3 19.1 89 1.2 ESE 37 46 20 25 1015.7 1015.7 90.8
24/03:00am 20.2 16.3 19.5 96 0.4 ESE 39 48 21 26 1016.2 1016.2 90.8
24/02:30am 20.7 17.1 20.2 97 0.3 SE 39 48 21 26 1016.4 1016.4 87.6
24/02:00am 20.7 17.2 20.5 99 0.1 SE 39 61 21 33 1016.3 1016.3 86.6
24/01:59am 20.9 17.5 20.7 99 0.1 SE 39 57 21 31 1016.3 1016.3 86.4
24/01:54am 20.7 17.6 20.5 99 0.1 SE 37 50 20 27 1016.3 1016.3 86.2
24/01:30am 21.1 17.8 20.9 99 0.1 ESE 39 54 21 29 1015.9 1015.9 85.6
24/01:24am 21.4 18.8 21.4 100 0.0 E 37 44 20 24 1016.1 1016.1 85.2
24/01:02am 20.4 17.6 20.2 99 0.1 ENE 35 65 19 35 1016.5 1016.5 80.2
24/01:00am 20.0 16.6 19.8 99 0.1 ENE 37 57 20 31 1016.4 1016.4 78.2
24/12:51am 20.4 16.4 20.2 99 0.1 SE 41 67 22 36 1016.6 1016.6 63.8
24/12:49am 21.3 18.1 21.1 99 0.1 SE 39 67 21 36 1016.5 1016.5 61.4
24/12:30am 21.3 18.9 21.1 99 0.1 SSE 35 46 19 25 1016.3 1016.3 60.4
24/12:25am 21.3 18.9 21.1 99 0.1 SE 35 46 19 25 1016.5 1016.5 60.0
24/12:00am 21.2 18.0 21.0 99 0.1 ESE 39 46 21 25 1016.6 1016.6 59.2
 
Date/Time
EST
Temp
°C
App
Temp
°C
Dew
Point
°C
Rel
Hum
%
Delta-T
°C
Wind Press
QNH
hPa
Press
MSL
hPa
Rain since
9am
mm
Dir  Spd
km/h
Gust
km/h
Spd
kts
Gust
kts
23/11:30pm 21.6 18.2 21.4 99 0.1 ESE 41 56 22 30 1016.5 1016.5 58.4
23/11:00pm 21.1 17.5 20.9 99 0.1 ESE 41 52 22 28 1016.7 1016.7 56.6
23/10:30pm 20.9 16.6 20.7 99 0.1 SE 44 56 24 30 1017.2 1017.2 53.8
23/10:00pm 21.0 18.2 21.0 100 0.0 SE 37 57 20 31 1017.3 1017.3 50.2
23/09:57pm 20.9 18.4 20.9 100 0.0 SE 35 57 19 31 1017.3 1017.3 49.8
23/09:30pm 21.0 17.4 21.0 100 0.0 SE 41 54 22 29 1017.2 1017.2 46.4
23/09:00pm 20.7 18.1 20.7 100 0.0 ESE 35 48 19 26 1017.1 1017.1 43.6
23/08:30pm 20.8 17.4 20.6 99 0.1 ESE 39 59 21 32 1017.2 1017.2 30.0
23/08:00pm 20.6 15.6 20.1 97 0.3 ESE 46 61 25 33 1016.8 1016.8 21.2
23/07:50pm 21.0 17.0 20.2 95 0.5 SE 41 63 22 34 1016.6 1016.6 16.8
23/07:30pm 21.8 18.7 20.4 92 0.9 SE 37 48 20 26 1016.7 1016.7 16.2
23/07:00pm 21.7 18.5 20.3 92 0.9 ESE 37 46 20 25 1016.8 1016.8 16.2
23/06:30pm 21.7 17.5 19.8 89 1.2 ESE 41 50 22 27 1016.3 1016.3 16.0
23/06:00pm 21.7 18.5 19.4 87 1.5 SE 35 43 19 23 1016.6 1016.6 15.4
23/05:30pm 21.8 17.9 20.3 91 1.0 ESE 41 50 22 27 1015.3 1015.3 15.0
23/05:00pm 22.0 18.0 20.1 89 1.2 ESE 41 54 22 29 1015.9 1015.9 14.2
23/04:30pm 22.0 18.3 19.9 88 1.3 ESE 39 46 21 25 1016.1 1016.1 13.8
23/04:00pm 22.5 18.2 19.5 83 1.9 ESE 41 50 22 27 1016.2 1016.2 13.8
23/03:30pm 22.3 17.2 18.5 79 2.4 ESE 43 52 23 28 1015.1 1015.1 13.8
23/03:00pm 22.4 17.8 19.6 84 1.8 ESE 43 54 23 29 1015.0 1015.0 13.8
23/02:30pm 22.2 17.6 19.7 86 1.6 ESE 43 56 23 30 1015.4 1015.4 13.8
23/02:00pm 22.0 18.2 19.7 87 1.5 ESE 39 48 21 26 1015.6 1015.6 13.8
23/01:30pm 21.6 18.3 20.1 91 1.0 SE 37 50 20 27 1016.2 1016.2 13.4
23/01:00pm 21.5 19.3 20.3 93 0.8 SE 32 44 17 24 1015.8 1015.8 13.2
23/12:30pm 21.4 17.3 20.7 96 0.5 SE 43 54 23 29 1016.2 1016.2 12.8
23/12:00pm 21.9 18.7 19.5 86 1.5 ESE 35 41 19 22 1016.8 1016.8 6.2
23/11:30am 21.7 17.8 19.6 88 1.3 SE 39 52 21 28 1016.9 1016.9 5.8
23/11:00am 21.5 17.5 21.0 97 0.3 SE 43 56 23 30 1016.6 1016.6 5.4
23/10:30am 21.2 18.3 20.9 98 0.2 SE 37 48 20 26 1017.3 1017.3 4.0
23/10:00am 21.6 18.2 20.6 94 0.6 SE 39 52 21 28 1017.8 1017.8 3.0
23/09:33am 20.7 17.4 20.0 96 0.4 ESE 37 56 20 30 1018.0 1018.0 2.2
23/09:30am 21.0 17.5 20.5 97 0.3 ESE 39 56 21 30 1018.0 1018.0 2.0
23/09:00am 22.2 16.9 19.4 84 1.8 SE 46 57 25 31 1017.9 1017.9 12.4
23/08:30am 22.1 17.3 19.6 86 1.6 SE 44 57 24 31 1017.5 1017.5 12.4
23/08:11am 22.2 18.1 19.9 87 1.5 SE 41 59 22 32 1017.3 1017.3 12.4
23/08:00am 21.7 17.5 19.8 89 1.2 SE 41 54 22 29 1017.3 1017.3 12.4
23/07:48am 21.4 17.7 19.9 91 1.0 SSE 39 57 21 31 1017.2 1017.2 12.4
23/07:30am 21.8 17.2 19.7 88 1.3 SE 43 56 23 30 1017.3 1017.3 12.4
23/07:00am 21.0 16.5 20.0 94 0.6 SE 43 57 23 31 1017.2 1017.2 12.4
23/06:30am 21.3 17.8 21.1 99 0.1 SE 41 54 22 29 1016.8 1016.8 12.4
23/06:13am 21.0 18.5 20.8 99 0.1 SSE 35 57 19 31 1016.6 1016.6 12.4
23/06:00am 20.9 17.5 20.7 99 0.1 SE 39 52 21 28 1016.3 1016.3 12.0
23/05:30am 21.4 17.8 20.2 93 0.8 SE 39 54 21 29 1015.8 1015.8 11.0
23/05:00am 21.2 18.2 20.7 97 0.3 SSE 37 52 20 28 1015.6 1015.6 11.0
23/04:30am 21.3 17.3 20.1 93 0.8 SE 41 54 22 29 1015.2 1015.2 11.0
23/04:00am 21.0 17.1 20.3 96 0.4 SE 41 54 22 29 1015.1 1015.1 11.0
23/03:50am 21.0 17.2 20.5 97 0.3 SE 41 59 22 32 1015.0 1015.0 11.0
23/03:30am 21.5 17.3 20.5 94 0.6 SE 43 56 23 30 1015.0 1015.0 11.0
23/03:00am 21.1 17.5 20.9 99 0.1 SE 41 56 22 30 1014.9 1014.9 10.8
23/02:30am 21.2 17.6 20.2 94 0.6 SSE 39 57 21 31 1015.2 1015.2 10.0
23/02:22am 21.5 19.0 20.8 96 0.5 SE 35 54 19 29 1015.1 1015.1 10.0
23/02:00am 21.0 18.8 20.8 99 0.1 SSE 33 46 18 25 1015.2 1015.2 10.0
23/01:30am 21.2 18.0 21.0 99 0.1 SE 39 50 21 27 1015.4 1015.4 9.8
23/01:05am 20.8 18.2 20.6 99 0.1 SE 35 54 19 29 1015.4 1015.4 6.8
23/01:00am 21.1 18.6 20.9 99 0.1 SE 35 46 19 25 1015.6 1015.6 5.6
23/12:30am 20.9 18.3 20.7 99 0.1 SE 35 54 19 29 1015.6 1015.6 3.2
23/12:29am 20.8 18.2 20.6 99 0.1 SE 35 54 19 29 1015.7 1015.7 3.0
23/12:00am 20.9 18.7 20.7 99 0.1 SSE 33 46 18 25 1015.9 1015.9 1.8
 
Date/Time
EST
Temp
°C
App
Temp
°C
Dew
Point
°C
Rel
Hum
%
Delta-T
°C
Wind Press
QNH
hPa
Press
MSL
hPa
Rain since
9am
mm
Dir  Spd
km/h
Gust
km/h
Spd
kts
Gust
kts
22/11:30pm 21.4 19.1 20.6 95 0.5 SE 33 46 18 25 1016.0 1016.0 1.6
22/11:06pm 21.1 17.3 19.7 92 0.9 SE 39 57 21 31 1016.2 1016.2 1.0
22/11:00pm 21.6 18.2 19.9 90 1.1 SE 37 50 20 27 1016.0 1016.0 0.8

Other formats

Comma delimited format used in spreadsheet applications
http://www.bom.gov.au/fwo/IDQ60801/IDQ60801.94388.axf

JavaScript Object Notation format (JSON) in row-major order
http://www.bom.gov.au/fwo/IDQ60801/IDQ60801.94388.json

Data quality

Most of these data are generated automatically and are frequently updated. Quality checks on data are not normally performed. It is possible for incorrect values to appear. Refer to information at About Latest Weather Observations and please check the disclaimer before using these data.